createdAt,value
2019-03-21T06:11:07.878Z,26.37
2019-03-21T06:13:40.187Z,35.40
2019-03-21T06:16:16.449Z,32.63
2019-03-21T06:19:10.907Z,29.60
2019-03-21T06:22:06.879Z,29.03
2019-03-21T06:24:55.710Z,31.50
2019-03-21T06:27:30.632Z,31.13
2019-03-21T06:30:02.560Z,29.53
2019-03-21T06:32:35.601Z,31.43
2019-03-21T06:35:21.910Z,31.27
2019-03-21T06:37:56.917Z,33.50
2019-03-21T06:40:28.981Z,32.33
2019-03-21T06:43:02.386Z,31.47
2019-03-21T06:45:47.186Z,30.20
2019-03-21T06:48:07.964Z,30.13
2019-03-21T06:50:39.798Z,29.30
2019-03-21T06:53:11.767Z,29.67
2019-03-21T06:55:43.613Z,31.30
2019-03-21T06:58:15.742Z,34.23
2019-03-21T07:00:47.703Z,27.20
2019-03-21T07:03:20.082Z,32.17
2019-03-21T07:09:03.821Z,28.03
2019-03-21T07:11:37.949Z,31.97
2019-03-21T07:14:09.983Z,23.77
2019-03-21T07:16:41.907Z,29.97
2019-03-21T07:47:17.862Z,21.00
2019-03-21T07:49:50.070Z,28.87
2019-03-21T07:52:25.764Z,22.87
2019-03-21T07:54:57.990Z,24.72
2019-03-21T07:57:34.460Z,26.25
2019-03-21T08:00:14.730Z,20.77
2019-03-21T08:02:56.122Z,18.50
2019-03-21T08:05:39.492Z,20.92
2019-03-21T08:08:03.498Z,20.12
2019-03-21T08:10:35.822Z,20.32
2019-03-21T08:13:08.313Z,22.42
2019-03-21T08:15:40.887Z,23.55
2019-03-21T08:18:13.478Z,22.87
2019-03-21T08:20:56.237Z,19.48
2019-03-21T08:23:19.076Z,21.20
2019-03-21T08:25:52.702Z,18.55
2019-03-21T08:28:24.599Z,21.95
2019-03-21T08:31:17.260Z,26.13
2019-03-21T08:33:49.429Z,22.00
2019-03-21T08:36:21.313Z,16.45
2019-03-21T08:38:53.351Z,20.75
2019-03-21T08:41:25.647Z,17.90
2019-03-21T08:43:57.677Z,22.22
2019-03-21T08:46:29.679Z,21.35
2019-03-21T08:49:01.002Z,20.80
2019-03-21T08:51:32.706Z,18.15
2019-03-21T08:54:05.081Z,17.77
2019-03-21T08:56:38.217Z,21.23
2019-03-21T08:59:11.219Z,15.90
2019-03-21T09:11:03.433Z,17.07
2019-03-21T09:13:36.401Z,17.55
2019-03-21T09:16:10.810Z,17.75
2019-03-21T09:18:42.657Z,15.18
2019-03-21T09:21:19.845Z,16.90
2019-03-21T09:23:49.199Z,13.00
2019-03-21T09:26:21.601Z,18.17
2019-03-21T09:29:20.434Z,15.98
2019-03-21T09:32:03.899Z,17.07
2019-03-21T09:34:51.219Z,18.00
2019-03-21T09:37:33.461Z,20.60
2019-03-21T09:40:07.142Z,19.52
2019-03-21T09:42:40.057Z,20.68
2019-03-21T09:45:11.912Z,21.48
2019-03-21T09:47:43.881Z,20.55
2019-03-21T09:50:25.666Z,21.80
2019-03-21T09:52:58.141Z,19.25
2019-03-21T11:06:37.180Z,20.90
2019-03-21T11:09:10.038Z,20.52
2019-03-21T11:11:42.049Z,20.15
2019-03-21T11:14:13.959Z,21.80
2019-03-21T11:16:48.084Z,21.90
2019-03-21T11:19:20.152Z,21.42
2019-03-21T11:21:52.459Z,17.52
2019-03-21T11:24:24.477Z,20.90
2019-03-21T11:26:57.447Z,19.45
2019-03-21T11:29:29.333Z,18.25
2019-03-21T11:32:02.994Z,18.92
2019-03-21T11:34:35.607Z,15.35
2019-03-21T11:37:08.992Z,17.77
2019-03-21T11:39:42.383Z,19.40
2019-03-21T11:42:18.716Z,18.57
2019-03-21T11:44:53.601Z,17.12
2019-03-21T11:47:26.349Z,18.50
2019-03-21T11:49:59.446Z,21.40
2019-03-21T11:52:31.858Z,17.45
2019-03-21T11:55:03.702Z,17.70
2019-03-21T11:57:36.653Z,16.23
2019-03-21T12:00:13.308Z,20.37
2019-03-21T12:02:45.715Z,15.90
2019-03-21T12:05:18.151Z,21.62
2019-03-21T12:07:52.039Z,18.50
2019-03-21T12:10:23.940Z,20.17
2019-03-21T12:12:55.965Z,17.80
2019-03-21T12:15:28.249Z,18.77
2019-03-21T12:18:03.061Z,18.52
2019-03-21T12:20:36.337Z,22.75
2019-03-21T12:23:08.281Z,23.10
2019-03-21T12:25:41.729Z,25.82
2019-03-21T12:28:14.017Z,27.30
2019-03-21T12:30:47.693Z,21.65
2019-03-21T12:33:20.530Z,21.75
2019-03-21T12:35:52.938Z,25.30
2019-03-21T12:38:26.151Z,24.12
2019-03-21T12:40:58.421Z,24.45
2019-03-21T12:43:32.805Z,28.00
2019-03-21T12:46:04.905Z,22.62
2019-03-21T12:48:37.669Z,26.73
2019-03-21T12:51:10.926Z,20.25
2019-03-21T12:53:47.910Z,23.22
2019-03-21T12:56:20.996Z,20.02
2019-03-21T12:58:53.118Z,21.35
2019-03-21T13:01:26.465Z,20.88
2019-03-21T13:03:59.095Z,21.52
2019-03-21T13:06:33.663Z,26.20
2019-03-21T13:09:08.312Z,20.52
2019-03-21T13:37:13.218Z,23.18
2019-03-21T13:39:46.506Z,23.27
2019-03-21T13:42:18.541Z,22.15
2019-03-21T13:44:50.825Z,22.67
2019-03-21T13:47:22.672Z,26.52
2019-03-21T13:49:54.741Z,26.70
2019-03-21T13:52:26.644Z,21.85
2019-03-21T13:54:59.658Z,23.07
2019-03-21T13:57:32.303Z,38.85
2019-03-21T14:00:05.557Z,26.97
2019-03-21T14:02:38.810Z,37.35
2019-03-21T14:05:11.301Z,25.65
2019-03-21T14:07:43.881Z,24.15
2019-03-21T14:10:17.863Z,32.65
2019-03-21T14:12:50.213Z,25.27
2019-03-21T14:15:22.143Z,24.67
2019-03-21T14:17:55.068Z,24.30
2019-03-21T14:20:27.189Z,25.97
2019-03-21T14:23:00.822Z,20.10
2019-03-21T14:25:33.247Z,22.40
2019-03-21T14:28:05.968Z,22.90
2019-03-21T14:30:38.271Z,23.20
2019-03-21T14:33:10.355Z,28.42
2019-03-21T14:35:43.141Z,19.92
2019-03-21T14:38:25.753Z,25.10
2019-03-21T14:40:48.956Z,22.32
2019-03-21T14:43:21.268Z,22.42
2019-03-21T14:45:54.599Z,20.57
2019-03-21T14:48:28.773Z,20.27
2019-03-21T14:51:02.021Z,18.15
2019-03-21T14:53:34.326Z,19.62
2019-03-21T14:56:06.431Z,20.20
2019-03-21T14:58:38.417Z,21.20
2019-03-21T15:01:11.401Z,20.97
2019-03-21T15:03:45.493Z,22.77
2019-03-21T15:06:20.269Z,17.77
2019-03-21T15:08:59.271Z,24.32
2019-03-21T15:11:32.122Z,20.75
2019-03-21T15:14:04.582Z,19.43
2019-03-21T15:16:35.936Z,23.25
2019-03-21T15:19:07.445Z,23.95
2019-03-21T15:21:40.717Z,23.22
2019-03-21T15:24:12.743Z,23.38
2019-03-21T15:26:44.623Z,23.65
2019-03-21T15:29:17.867Z,20.37
2019-03-21T15:31:50.723Z,25.10
2019-03-21T15:34:22.741Z,25.80
2019-03-21T15:36:54.666Z,23.25
2019-03-21T15:39:26.584Z,31.07
2019-03-21T15:41:58.842Z,25.90
2019-03-21T15:44:33.102Z,27.50
2019-03-21T15:47:12.697Z,26.42
2019-03-21T15:49:46.015Z,24.30
2019-03-21T15:52:22.000Z,25.47
2019-03-21T15:54:54.078Z,28.40
2019-03-21T15:57:26.148Z,29.40
2019-03-21T15:59:58.879Z,27.98
2019-03-21T16:02:31.438Z,29.97
2019-03-21T16:05:10.407Z,28.03
2019-03-21T16:07:39.535Z,32.23
2019-03-21T16:10:11.578Z,30.77
2019-03-21T16:12:44.660Z,29.27
2019-03-21T16:15:16.613Z,29.87
2019-03-21T16:17:49.350Z,29.37
2019-03-21T16:20:21.376Z,26.57
2019-03-21T16:22:56.799Z,29.30
2019-03-21T16:25:31.440Z,29.67
2019-03-21T16:28:03.535Z,28.77
2019-03-21T16:30:37.313Z,33.57
2019-03-21T16:33:10.059Z,30.30
2019-03-21T16:35:42.778Z,32.13
2019-03-21T16:38:15.007Z,32.90
2019-03-21T16:40:47.913Z,30.83
2019-03-21T16:43:21.565Z,32.60
2019-03-21T16:45:58.332Z,30.50
2019-03-21T16:48:30.438Z,32.37
2019-03-21T16:51:04.857Z,28.73
2019-03-21T16:53:39.611Z,26.77
2019-03-21T16:56:13.610Z,29.53
2019-03-21T16:58:46.420Z,31.53
2019-03-21T17:01:18.297Z,30.10
2019-03-21T17:04:15.046Z,29.15
2019-03-21T17:06:48.184Z,29.90
2019-03-21T17:09:26.439Z,25.20
2019-03-21T17:11:58.376Z,34.50
2019-03-21T17:14:30.468Z,27.47
2019-03-21T17:17:02.600Z,32.53
2019-03-21T17:19:35.084Z,33.67
2019-03-21T17:22:06.879Z,34.37
2019-03-21T17:24:38.987Z,37.50
2019-03-21T17:27:12.395Z,33.83
2019-03-21T17:29:44.293Z,37.03
2019-03-21T17:32:17.420Z,43.05
2019-03-21T17:34:49.787Z,38.37
2019-03-21T17:37:22.773Z,37.03
2019-03-21T17:39:54.579Z,35.70
2019-03-21T17:42:26.525Z,36.03
2019-03-21T17:44:58.618Z,40.90
2019-03-21T17:47:30.913Z,37.23
2019-03-21T17:50:02.865Z,43.47
2019-03-21T17:52:34.985Z,37.63
2019-03-21T17:55:07.254Z,43.43
2019-03-21T17:57:39.340Z,41.13
2019-03-21T18:00:13.651Z,41.60
2019-03-21T18:02:47.732Z,42.00
2019-03-21T18:05:19.755Z,37.50
2019-03-21T18:07:51.730Z,35.87
2019-03-21T18:10:32.065Z,35.20
2019-03-21T18:13:04.735Z,33.87
2019-03-21T18:15:36.798Z,35.63
2019-03-21T18:18:09.014Z,36.53
2019-03-21T18:20:41.345Z,39.80
2019-03-21T18:23:16.280Z,36.10
2019-03-21T18:25:51.115Z,32.13
2019-03-21T18:28:25.228Z,37.37
2019-03-21T18:30:57.709Z,41.33
2019-03-21T18:33:33.694Z,42.37
2019-03-21T18:36:07.193Z,44.30
2019-03-21T18:38:41.830Z,47.63
2019-03-21T18:41:16.183Z,49.57
2019-03-21T18:43:50.622Z,44.10
2019-03-21T18:46:23.640Z,47.47
2019-03-21T18:48:55.865Z,50.63
2019-03-21T18:51:29.424Z,46.90
2019-03-21T18:54:02.603Z,46.83
2019-03-21T18:56:37.069Z,44.63
2019-03-21T18:59:09.598Z,46.03
2019-03-21T19:01:43.458Z,49.63
2019-03-21T19:04:16.166Z,46.97
2019-03-21T19:06:51.155Z,47.77
2019-03-21T19:09:23.892Z,44.67
2019-03-21T19:11:56.837Z,50.67
2019-03-21T19:14:31.179Z,42.03
2019-03-21T19:17:06.506Z,46.43
2019-03-21T19:19:41.260Z,49.90
2019-03-21T19:22:16.282Z,46.33
2019-03-21T19:24:49.697Z,44.13
2019-03-21T19:27:21.805Z,50.30
2019-03-21T19:29:54.000Z,52.10
2019-03-21T19:32:26.056Z,46.00
2019-03-21T19:34:58.452Z,49.00
2019-03-21T19:37:30.808Z,52.00
2019-03-21T19:40:03.107Z,45.87
2019-03-21T19:42:36.998Z,47.07
2019-03-21T19:45:11.414Z,50.03
2019-03-21T19:47:45.490Z,49.60
2019-03-21T19:50:18.786Z,49.47
2019-03-21T19:52:51.893Z,48.47
2019-03-21T19:55:30.934Z,45.60
2019-03-21T19:57:59.060Z,63.57
2019-03-21T20:00:38.163Z,57.70
2019-03-21T20:03:10.650Z,55.00
2019-03-21T20:05:42.990Z,53.47
2019-03-21T20:08:15.179Z,51.27
2019-03-21T20:10:47.937Z,48.17
2019-03-21T20:13:20.388Z,48.70
2019-03-21T20:15:53.872Z,51.47
2019-03-21T20:18:25.733Z,47.00
2019-03-21T20:20:57.982Z,48.40
2019-03-21T20:23:29.833Z,43.40
2019-03-21T20:26:02.831Z,42.60
2019-03-21T20:28:37.734Z,39.50
2019-03-21T20:31:10.063Z,43.47
2019-03-21T20:33:45.568Z,43.10
2019-03-21T20:36:47.479Z,44.77
2019-03-21T20:39:19.404Z,44.37
2019-03-21T20:41:51.769Z,39.97
2019-03-21T20:44:23.751Z,41.40
2019-03-21T20:46:56.154Z,40.17
2019-03-21T20:49:29.144Z,47.60
2019-03-21T20:52:04.350Z,45.10
2019-03-21T20:54:36.706Z,41.13
2019-03-21T20:57:09.056Z,37.53
2019-03-21T20:59:41.244Z,36.73
2019-03-21T21:02:14.672Z,39.17
2019-03-21T21:04:46.984Z,43.87
2019-03-21T21:07:20.875Z,41.67
2019-03-21T21:09:54.737Z,38.87
2019-03-21T21:12:26.744Z,37.97
2019-03-21T21:14:59.023Z,36.10
2019-03-21T21:17:33.685Z,33.87
2019-03-21T21:20:07.259Z,35.93
2019-03-21T21:22:40.713Z,38.37
2019-03-21T21:25:15.936Z,37.03
2019-03-21T21:27:50.119Z,37.03
2019-03-21T21:33:34.423Z,38.67
2019-03-21T21:36:06.718Z,33.07
2019-03-21T21:38:40.563Z,38.37
2019-03-21T21:41:12.757Z,38.27
2019-03-21T21:43:44.762Z,37.57
2019-03-21T21:46:16.791Z,38.67
2019-03-21T21:48:48.674Z,38.20
2019-03-21T21:51:20.763Z,37.67
2019-03-21T21:53:52.826Z,37.43
2019-03-21T21:56:24.629Z,34.87
2019-03-21T21:58:56.481Z,36.63
2019-03-21T22:01:28.287Z,36.07
2019-03-21T22:04:04.915Z,42.03
2019-03-21T22:06:35.629Z,40.00
2019-03-21T22:09:10.447Z,40.73
2019-03-21T22:11:42.271Z,42.23
2019-03-21T22:14:14.754Z,41.47
2019-03-21T22:16:46.648Z,44.17
2019-03-21T22:19:18.482Z,39.97
2019-03-21T22:21:54.199Z,40.77
2019-03-21T22:24:27.335Z,42.47
2019-03-21T22:26:59.149Z,38.13
2019-03-21T22:29:31.311Z,40.63
2019-03-21T22:32:03.297Z,43.30
2019-03-21T22:34:35.605Z,43.87
2019-03-21T22:37:07.530Z,42.43
2019-03-21T22:39:41.278Z,42.90
2019-03-21T22:42:13.465Z,42.47
2019-03-21T22:44:45.582Z,44.07
2019-03-21T22:47:17.828Z,43.27
2019-03-21T22:49:50.300Z,45.50
2019-03-21T22:52:23.603Z,42.83
2019-03-21T22:54:55.457Z,40.43
2019-03-21T22:57:27.671Z,40.53
2019-03-21T22:59:59.922Z,46.93
2019-03-21T23:02:33.602Z,46.43
2019-03-21T23:05:06.478Z,41.57
2019-03-21T23:55:42.901Z,45.93
2019-03-21T23:58:15.957Z,44.67
